sensor_id;sensor_type;location;lat;lon;timestamp;pressure;altitude;pressure_sealevel;temperature;humidity
12913;BME280;6524;51.368;11.984;2023-07-29T04:05:05;156421.63;;;16.76;72.81
12913;BME280;6524;51.368;11.984;2023-07-29T04:10:08;156408.53;;;16.70;73.35
12913;BME280;6524;51.368;11.984;2023-07-29T04:15:09;156434.75;;;16.81;72.63
12913;BME280;6524;51.368;11.984;2023-07-29T04:20:10;156442.63;;;16.84;73.23
12913;BME280;6524;51.368;11.984;2023-07-29T04:25:10;156357.34;;;16.51;74.36
12913;BME280;6524;51.368;11.984;2023-07-29T04:30:11;156412.44;;;16.72;73.19
12913;BME280;6524;51.368;11.984;2023-07-29T04:35:11;156387.53;;;16.62;nan
12913;BME280;6524;51.368;11.984;2023-07-29T04:40:11;156447.88;;;16.86;72.91
12913;BME280;6524;51.368;11.984;2023-07-29T04:45:12;156453.09;;;16.88;72.83
12913;BME280;6524;51.368;11.984;2023-07-29T04:50:12;156400.66;;;16.67;74.16
12913;BME280;6524;51.368;11.984;2023-07-29T04:55:13;156398.06;;;16.66;73.93
12913;BME280;6524;51.368;11.984;2023-07-29T05:00:13;156350.84;;;16.48;73.81
12913;BME280;6524;51.368;11.984;2023-07-29T05:05:13;156440.00;;;16.83;72.46
12913;BME280;6524;51.368;11.984;2023-07-29T05:10:14;156472.81;;;16.96;71.84
12913;BME280;6524;51.368;11.984;2023-07-29T05:15:14;156479.38;;;16.98;71.42
12913;BME280;6524;51.368;11.984;2023-07-29T05:20:16;156538.44;;;17.21;69.97
12913;BME280;6524;51.368;11.984;2023-07-29T05:25:16;156563.34;;;17.31;70.04
12913;BME280;6524;51.368;11.984;2023-07-29T05:30:17;156613.19;;;17.50;69.09
12913;BME280;6524;51.368;11.984;2023-07-29T05:35:17;156648.66;;;17.64;68.33
12913;BME280;6524;51.368;11.984;2023-07-29T05:40:18;156789.13;;;18.19;66.87
12913;BME280;6524;51.368;11.984;2023-07-29T05:45:18;156944.09;;;18.79;65.34
12913;BME280;6524;51.368;11.984;2023-07-29T05:50:18;157001.91;;;19.02;64.00
12913;BME280;6524;51.368;11.984;2023-07-29T05:55:19;156967.72;;;18.88;64.10
12913;BME280;6524;51.368;11.984;2023-07-29T06:00:19;156912.56;;;18.67;63.94
12913;BME280;6524;51.368;11.984;2023-07-29T06:05:20;156984.78;;;18.95;63.47
12913;BME280;6524;51.368;11.984;2023-07-29T06:10:20;156907.34;;;18.65;64.06
12913;BME280;6524;51.368;11.984;2023-07-29T06:15:20;156850.84;;;18.43;65.27
12913;BME280;6524;51.368;11.984;2023-07-29T06:20:23;156980.88;;;18.93;63.76
12913;BME280;6524;51.368;11.984;2023-07-29T06:25:23;156949.34;;;18.81;63.79
12913;BME280;6524;51.368;11.984;2023-07-29T06:30:24;157078.13;;;19.31;62.74
12913;BME280;6524;51.368;11.984;2023-07-29T06:35:24;157174.03;;;19.68;61.14
12913;BME280;6524;51.368;11.984;2023-07-29T06:40:24;157204.31;;;19.80;59.96
12913;BME280;6524;51.368;11.984;2023-07-29T06:45:25;157272.63;;;20.07;59.86
12913;BME280;6524;51.368;11.984;2023-07-29T06:50:25;157250.28;;;19.98;59.94
12913;BME280;6524;51.368;11.984;2023-07-29T06:55:25;157246.34;;;19.97;58.98
12913;BME280;6524;51.368;11.984;2023-07-29T07:00:26;157235.88;;;19.93;58.93
12913;BME280;6524;51.368;11.984;2023-07-29T07:05:27;157217.44;;;19.85;58.60
12913;BME280;6524;51.368;11.984;2023-07-29T07:10:28;157271.31;;;20.06;59.20
12913;BME280;6524;51.368;11.984;2023-07-29T07:15:29;157298.91;;;20.17;58.21
12913;BME280;6524;51.368;11.984;2023-07-29T07:20:29;157300.25;;;20.18;58.35
12913;BME280;6524;51.368;11.984;2023-07-29T07:25:29;157246.34;;;19.97;59.05
12913;BME280;6524;51.368;11.984;2023-07-29T07:30:30;157122.81;;;19.49;60.79
12913;BME280;6524;51.368;11.984;2023-07-29T07:35:30;157146.47;;;19.58;60.27
12913;BME280;6524;51.368;11.984;2023-07-29T07:40:31;157191.09;;;19.75;59.84
12913;BME280;6524;51.368;11.984;2023-07-29T07:45:34;157377.81;;;20.48;58.25
12913;BME280;6524;51.368;11.984;2023-07-29T07:50:34;157518.59;;;21.02;57.17
12913;BME280;6524;51.368;11.984;2023-07-29T07:55:35;157675.13;;;21.63;54.96
12913;BME280;6524;51.368;11.984;2023-07-29T08:00:37;157677.72;;;21.64;54.54
12913;BME280;6524;51.368;11.984;2023-07-29T08:05:38;157711.97;;;21.78;54.47
12913;BME280;6524;51.368;11.984;2023-07-29T08:10:38;157548.78;;;21.14;56.25
12913;BME280;6524;51.368;11.984;2023-07-29T08:15:39;157630.38;;;21.46;55.78
12913;BME280;6524;51.368;11.984;2023-07-29T08:20:41;157618.50;;;21.41;55.82
12913;BME280;6524;51.368;11.984;2023-07-29T08:25:41;157602.72;;;21.35;56.47
12913;BME280;6524;51.368;11.984;2023-07-29T08:30:42;157548.78;;;21.14;55.59
12913;BME280;6524;51.368;11.984;2023-07-29T08:35:42;157709.31;;;21.77;54.46
12913;BME280;6524;51.368;11.984;2023-07-29T08:46:22;158034.50;;;23.03;51.13
12913;BME280;6524;51.368;11.984;2023-07-29T08:51:23;157859.38;;;22.35;51.94
12913;BME280;6524;51.368;11.984;2023-07-29T08:56:24;157843.56;;;22.29;52.08
12913;BME280;6524;51.368;11.984;2023-07-29T09:01:25;157665.88;;;21.60;53.76
12913;BME280;6524;51.368;11.984;2023-07-29T09:06:26;157643.50;;;21.51;53.84
12913;BME280;6524;51.368;11.984;2023-07-29T09:11:28;157676.41;;;21.64;53.85
12913;BME280;6524;51.368;11.984;2023-07-29T09:16:28;157919.88;;;22.58;51.99
12913;BME280;6524;51.368;11.984;2023-07-29T09:21:29;157893.56;;;22.48;51.10
12913;BME280;6524;51.368;11.984;2023-07-29T09:26:30;157748.78;;;21.92;52.48
12913;BME280;6524;51.368;11.984;2023-07-29T09:31:31;157921.25;;;22.59;51.79
12913;BME280;6524;51.368;11.984;2023-07-29T09:36:33;158021.31;;;22.98;50.51
12913;BME280;6524;51.368;11.984;2023-07-29T09:41:33;157904.09;;;22.52;50.44
12913;BME280;6524;51.368;11.984;2023-07-29T09:46:36;157915.97;;;22.57;50.24
12913;BME280;6524;51.368;11.984;2023-07-29T09:51:38;157954.13;;;22.72;50.05
12913;BME280;6524;51.368;11.984;2023-07-29T09:56:41;157885.69;;;22.45;50.43
12913;BME280;6524;51.368;11.984;2023-07-29T10:01:45;157859.38;;;22.35;50.08
12913;BME280;6524;51.368;11.984;2023-07-29T10:06:46;157806.66;;;22.14;50.98
12913;BME280;6524;51.368;11.984;2023-07-29T10:11:47;157822.50;;;22.20;52.19
12913;BME280;6524;51.368;11.984;2023-07-29T10:16:48;157664.56;;;21.59;52.37
12913;BME280;6524;51.368;11.984;2023-07-29T10:21:49;157615.91;;;21.40;52.66
12913;BME280;6524;51.368;11.984;2023-07-29T10:26:50;157569.84;;;21.22;54.66
12913;BME280;6524;51.368;11.984;2023-07-29T10:31:54;157685.63;;;21.67;55.48
12913;BME280;6524;51.368;11.984;2023-07-29T10:36:57;157693.50;;;21.70;52.94
12913;BME280;6524;51.368;11.984;2023-07-29T10:42:05;157877.78;;;22.42;50.49
12913;BME280;6524;51.368;11.984;2023-07-29T10:47:13;158175.41;;;23.57;48.33
12913;BME280;6524;51.368;11.984;2023-07-29T10:52:28;158362.47;;;24.30;45.38
12913;BME280;6524;51.368;11.984;2023-07-29T10:57:38;158429.75;;;24.56;44.83
12913;BME280;6524;51.368;11.984;2023-07-29T11:02:41;158142.50;;;23.45;46.08
12913;BME280;6524;51.368;11.984;2023-07-29T11:07:47;157829.09;;;22.23;49.49
12913;BME280;6524;51.368;11.984;2023-07-29T11:12:50;157914.66;;;22.56;49.87
12913;BME280;6524;51.368;11.984;2023-07-29T11:17:54;158064.72;;;23.15;47.44
12913;BME280;6524;51.368;11.984;2023-07-29T11:23:14;158064.72;;;23.15;47.89
12913;BME280;6524;51.368;11.984;2023-07-29T11:28:15;158117.47;;;23.35;47.21
12913;BME280;6524;51.368;11.984;2023-07-29T11:33:18;158164.88;;;23.53;46.51
12913;BME280;6524;51.368;11.984;2023-07-29T11:38:21;158114.84;;;23.34;46.51
12913;BME280;6524;51.368;11.984;2023-07-29T11:43:22;158047.63;;;23.08;47.25
12913;BME280;6524;51.368;11.984;2023-07-29T11:48:30;158070.00;;;23.17;46.97
12913;BME280;6524;51.368;11.984;2023-07-29T11:53:31;158087.13;;;23.23;47.22
12913;BME280;6524;51.368;11.984;2023-07-29T11:58:32;158059.50;;;23.13;47.47
12913;BME280;6524;51.368;11.984;2023-07-29T12:03:33;158012.09;;;22.94;47.53
12913;BME280;6524;51.368;11.984;2023-07-29T12:08:33;158041.03;;;23.05;47.51
12913;BME280;6524;51.368;11.984;2023-07-29T12:13:36;158246.53;;;23.85;45.21
12913;BME280;6524;51.368;11.984;2023-07-29T12:18:37;158188.59;;;23.63;45.90
12913;BME280;6524;51.368;11.984;2023-07-29T12:23:38;158309.81;;;24.10;45.21
12913;BME280;6524;51.368;11.984;2023-07-29T12:28:45;158221.50;;;23.75;45.36
12913;BME280;6524;51.368;11.984;2023-07-29T12:33:46;158320.34;;;24.14;43.99
12913;BME280;6524;51.368;11.984;2023-07-29T12:38:46;158383.56;;;24.38;43.21
12913;BME280;6524;51.368;11.984;2023-07-29T12:43:47;158467.94;;;24.71;42.30
12913;BME280;6524;51.368;11.984;2023-07-29T12:48:48;158586.59;;;25.17;40.97
12913;BME280;6524;51.368;11.984;2023-07-29T12:53:48;158599.78;;;25.22;41.08
12913;BME280;6524;51.368;11.984;2023-07-29T12:58:49;158619.53;;;25.30;40.13
12913;BME280;6524;51.368;11.984;2023-07-29T13:03:49;158638.00;;;25.37;39.91
12913;BME280;6524;51.368;11.984;2023-07-29T13:08:50;158843.78;;;26.17;37.58
12913;BME280;6524;51.368;11.984;2023-07-29T13:13:51;158897.81;;;26.38;37.59
12913;BME280;6524;51.368;11.984;2023-07-29T13:18:51;158849.03;;;26.19;36.85
12913;BME280;6524;51.368;11.984;2023-07-29T13:23:52;158895.19;;;26.37;36.70
12913;BME280;6524;51.368;11.984;2023-07-29T13:28:52;158830.59;;;26.12;37.51
12913;BME280;6524;51.368;11.984;2023-07-29T13:33:53;158560.25;;;25.07;39.16
12913;BME280;6524;51.368;11.984;2023-07-29T13:38:54;158698.69;;;25.60;38.94
12913;BME280;6524;51.368;11.984;2023-07-29T13:43:54;158787.03;;;25.95;37.81
12913;BME280;6524;51.368;11.984;2023-07-29T13:48:55;158998.16;;;26.76;37.65
12913;BME280;6524;51.368;11.984;2023-07-29T13:53:55;158810.81;;;26.04;37.46
12913;BME280;6524;51.368;11.984;2023-07-29T13:58:56;158536.53;;;24.98;39.13
12913;BME280;6524;51.368;11.984;2023-07-29T14:03:57;158399.44;;;24.44;40.23
12913;BME280;6524;51.368;11.984;2023-07-29T14:08:57;158112.13;;;23.33;43.27
12913;BME280;6524;51.368;11.984;2023-07-29T14:13:58;157981.81;;;22.82;44.29
12913;BME280;6524;51.368;11.984;2023-07-29T14:18:58;157864.66;;;22.37;46.49
12913;BME280;6524;51.368;11.984;2023-07-29T14:23:59;157786.94;;;22.07;48.04
12913;BME280;6524;51.368;11.984;2023-07-29T14:29:00;157660.59;;;21.58;49.89
12913;BME280;6524;51.368;11.984;2023-07-29T14:34:00;157560.66;;;21.19;54.37
12913;BME280;6524;51.368;11.984;2023-07-29T14:39:01;157189.81;;;19.75;55.06
12913;BME280;6524;51.368;11.984;2023-07-29T14:44:02;157105.69;;;19.42;55.41
12913;BME280;6524;51.368;11.984;2023-07-29T14:49:03;157025.56;;;19.11;55.49
12913;BME280;6524;51.368;11.984;2023-07-29T14:54:06;156986.16;;;18.95;54.93
12913;BME280;6524;51.368;11.984;2023-07-29T14:59:07;157017.69;;;19.08;57.15
12913;BME280;6524;51.368;11.984;2023-07-29T15:04:08;156941.47;;;18.78;59.90
12913;BME280;6524;51.368;11.984;2023-07-29T15:09:12;156976.91;;;18.92;60.36
12913;BME280;6524;51.368;11.984;2023-07-29T15:14:13;156854.75;;;18.44;63.67
12913;BME280;6524;51.368;11.984;2023-07-29T15:19:13;156946.75;;;18.80;62.08
12913;BME280;6524;51.368;11.984;2023-07-29T15:24:14;156994.03;;;18.98;60.58
12913;BME280;6524;51.368;11.984;2023-07-29T15:29:15;157051.88;;;19.21;60.20
12913;BME280;6524;51.368;11.984;2023-07-29T15:34:16;157012.41;;;19.06;60.61
12913;BME280;6524;51.368;11.984;2023-07-29T15:39:17;157105.69;;;19.42;60.24
12913;BME280;6524;51.368;11.984;2023-07-29T15:44:17;157220.09;;;19.86;59.38
12913;BME280;6524;51.368;11.984;2023-07-29T15:49:18;157251.63;;;19.99;58.68
12913;BME280;6524;51.368;11.984;2023-07-29T15:54:18;157438.31;;;20.71;56.96
12913;BME280;6524;51.368;11.984;2023-07-29T15:59:19;157413.34;;;20.62;57.89
12913;BME280;6524;51.368;11.984;2023-07-29T16:04:22;157380.50;;;20.49;57.58
12913;BME280;6524;51.368;11.984;2023-07-29T16:09:23;157462.00;;;20.80;57.04
12913;BME280;6524;51.368;11.984;2023-07-29T16:14:23;157430.44;;;20.68;56.55
12913;BME280;6524;51.368;11.984;2023-07-29T16:19:28;157486.97;;;20.90;56.39
12913;BME280;6524;51.368;11.984;2023-07-29T16:24:29;157472.50;;;20.85;56.53
12913;BME280;6524;51.368;11.984;2023-07-29T16:29:29;157525.13;;;21.05;56.38
12913;BME280;6524;51.368;11.984;2023-07-29T16:34:30;157507.97;;;20.98;56.54
12913;BME280;6524;51.368;11.984;2023-07-29T16:39:30;157543.56;;;21.12;55.67
12913;BME280;6524;51.368;11.984;2023-07-29T16:44:31;157479.06;;;20.87;56.25
12913;BME280;6524;51.368;11.984;2023-07-29T16:49:32;157319.94;;;20.25;57.40
12913;BME280;6524;51.368;11.984;2023-07-29T16:54:32;157331.81;;;20.30;57.34
12913;BME280;6524;51.368;11.984;2023-07-29T16:59:33;157154.31;;;19.61;59.75
12913;BME280;6524;51.368;11.984;2023-07-29T17:04:33;157197.75;;;19.78;60.08
12913;BME280;6524;51.368;11.984;2023-07-29T17:09:34;157227.97;;;19.89;59.33
12913;BME280;6524;51.368;11.984;2023-07-29T17:14:34;157156.97;;;19.62;61.09
12913;BME280;6524;51.368;11.984;2023-07-29T17:19:35;157166.16;;;19.65;61.34
12913;BME280;6524;51.368;11.984;2023-07-29T17:24:36;157164.84;;;19.65;61.24
12913;BME280;6524;51.368;11.984;2023-07-29T17:29:36;157125.44;;;19.50;62.01
12913;BME280;6524;51.368;11.984;2023-07-29T17:34:37;157177.94;;;19.70;62.50
12913;BME280;6524;51.368;11.984;2023-07-29T17:39:37;157184.53;;;19.73;63.85
12913;BME280;6524;51.368;11.984;2023-07-29T17:44:41;157222.69;;;19.87;65.26
12913;BME280;6524;51.368;11.984;2023-07-29T17:49:41;157201.66;;;19.79;65.46
12913;BME280;6524;51.368;11.984;2023-07-29T17:54:41;157159.56;;;19.63;66.11
12913;BME280;6524;51.368;11.984;2023-07-29T17:59:42;157206.94;;;19.81;64.58
12913;BME280;6524;51.368;11.984;2023-07-29T18:04:42;157072.84;;;19.29;65.98
12913;BME280;6524;51.368;11.984;2023-07-29T18:09:43;156967.72;;;18.88;64.87
12913;BME280;6524;51.368;11.984;2023-07-29T18:14:44;156917.84;;;18.69;62.00
12913;BME280;6524;51.368;11.984;2023-07-29T18:19:45;156917.84;;;18.69;61.42
12913;BME280;6524;51.368;11.984;2023-07-29T18:24:45;156937.56;;;18.76;61.13
12913;BME280;6524;51.368;11.984;2023-07-29T18:29:46;156954.63;;;18.83;60.13
12913;BME280;6524;51.368;11.984;2023-07-29T18:34:46;156889.00;;;18.58;60.64
12913;BME280;6524;51.368;11.984;2023-07-29T18:39:47;156781.25;;;18.16;61.95
12913;BME280;6524;51.368;11.984;2023-07-29T18:44:47;156728.78;;;17.95;62.74
12913;BME280;6524;51.368;11.984;2023-07-29T18:49:47;156736.66;;;17.98;62.61
12913;BME280;6524;51.368;11.984;2023-07-29T18:54:48;156715.63;;;17.90;63.21
12913;BME280;6524;51.368;11.984;2023-07-29T18:59:48;156681.47;;;17.77;63.51
12913;BME280;6524;51.368;11.984;2023-07-29T19:04:48;156694.59;;;17.82;63.49
12913;BME280;6524;51.368;11.984;2023-07-29T19:09:49;156615.84;;;17.51;62.95
12913;BME280;6524;51.368;11.984;2023-07-29T19:14:49;156652.56;;;17.66;61.30
12913;BME280;6524;51.368;11.984;2023-07-29T19:19:49;156576.50;;;17.36;61.68
12913;BME280;6524;51.368;11.984;2023-07-29T19:24:50;156589.59;;;17.41;61.57
12913;BME280;6524;51.368;11.984;2023-07-29T19:29:50;156550.22;;;17.26;61.19
12913;BME280;6524;51.368;11.984;2023-07-29T19:34:54;156521.38;;;17.14;61.11
12913;BME280;6524;51.368;11.984;2023-07-29T19:39:56;156489.84;;;17.02;62.27
12913;BME280;6524;51.368;11.984;2023-07-29T19:44:56;156403.25;;;16.68;63.69
12913;BME280;6524;51.368;11.984;2023-07-29T19:49:56;156327.19;;;16.39;64.65
12913;BME280;6524;51.368;11.984;2023-07-29T19:54:57;156453.09;;;16.88;63.29
12913;BME280;6524;51.368;11.984;2023-07-29T19:59:57;156492.44;;;17.03;63.38
12913;BME280;6524;51.368;11.984;2023-07-29T20:04:57;156474.09;;;16.96;63.40
12913;BME280;6524;51.368;11.984;2023-07-29T20:09:58;156458.34;;;16.90;63.98
12913;BME280;6524;51.368;11.984;2023-07-29T20:14:58;156434.75;;;16.81;64.58
12913;BME280;6524;51.368;11.984;2023-07-29T20:20:00;156432.13;;;16.80;64.42
12913;BME280;6524;51.368;11.984;2023-07-29T20:25:01;156426.88;;;16.78;64.34
12913;BME280;6524;51.368;11.984;2023-07-29T20:30:01;156411.13;;;16.72;64.68
12913;BME280;6524;51.368;11.984;2023-07-29T20:35:02;156400.66;;;16.67;65.00
12913;BME280;6524;51.368;11.984;2023-07-29T20:40:03;156411.13;;;16.72;64.79
12913;BME280;6524;51.368;11.984;2023-07-29T20:45:04;156360.00;;;16.52;65.58
12913;BME280;6524;51.368;11.984;2023-07-29T20:50:06;156382.31;;;16.60;65.01
12913;BME280;6524;51.368;11.984;2023-07-29T20:55:07;156371.78;;;16.56;65.42
12913;BME280;6524;51.368;11.984;2023-07-29T21:00:07;156388.84;;;16.63;65.36
12913;BME280;6524;51.368;11.984;2023-07-29T21:05:10;156353.44;;;16.49;65.80
12913;BME280;6524;51.368;11.984;2023-07-29T21:10:10;156337.69;;;16.43;66.34
12913;BME280;6524;51.368;11.984;2023-07-29T21:15:14;156387.53;;;16.62;65.70
12913;BME280;6524;51.368;11.984;2023-07-29T21:20:14;156329.78;;;16.40;66.57
12913;BME280;6524;51.368;11.984;2023-07-29T21:25:15;156350.84;;;16.48;66.66
12913;BME280;6524;51.368;11.984;2023-07-29T21:30:15;156327.19;;;16.39;66.98
12913;BME280;6524;51.368;11.984;2023-07-29T21:35:16;156285.22;;;16.22;66.69
12913;BME280;6524;51.368;11.984;2023-07-29T21:40:17;156238.03;;;16.04;68.05
12913;BME280;6524;51.368;11.984;2023-07-29T21:45:17;156215.72;;;15.95;68.03
12913;BME280;6524;51.368;11.984;2023-07-29T21:50:17;156146.19;;;15.68;69.05
12913;BME280;6524;51.368;11.984;2023-07-29T21:55:18;156160.66;;;15.74;69.43
12913;BME280;6524;51.368;11.984;2023-07-29T22:00:19;156180.31;;;15.82;68.30
12913;BME280;6524;51.368;11.984;2023-07-29T22:05:20;156140.97;;;15.66;68.44
12913;BME280;6524;51.368;11.984;2023-07-29T22:10:20;156130.47;;;15.62;68.59
12913;BME280;6524;51.368;11.984;2023-07-29T22:15:21;156085.94;;;15.45;69.63
12913;BME280;6524;51.368;11.984;2023-07-29T22:20:21;156075.41;;;15.41;70.13
12913;BME280;6524;51.368;11.984;2023-07-29T22:25:21;156070.22;;;15.39;69.26
12913;BME280;6524;51.368;11.984;2023-07-29T22:30:22;156054.47;;;15.32;69.54
12913;BME280;6524;51.368;11.984;2023-07-29T22:35:23;155970.59;;;15.00;70.31
12913;BME280;6524;51.368;11.984;2023-07-29T22:40:23;156008.59;;;15.15;70.54
12913;BME280;6524;51.368;11.984;2023-07-29T22:45:23;156012.56;;;15.16;71.45
12913;BME280;6524;51.368;11.984;2023-07-29T22:50:24;156070.22;;;15.39;72.18
12913;BME280;6524;51.368;11.984;2023-07-29T22:55:24;156123.91;;;15.60;71.75
12913;BME280;6524;51.368;11.984;2023-07-29T23:00:24;156093.78;;;15.48;73.05
12913;BME280;6524;51.368;11.984;2023-07-29T23:05:25;156152.81;;;15.71;72.28
12913;BME280;6524;51.368;11.984;2023-07-29T23:10:25;156125.25;;;15.60;72.62
12913;BME280;6524;51.368;11.984;2023-07-29T23:15:26;156138.31;;;15.65;72.59
12913;BME280;6524;51.368;11.984;2023-07-29T23:20:26;156081.97;;;15.43;73.27
12913;BME280;6524;51.368;11.984;2023-07-29T23:25:28;156059.69;;;15.35;73.87
12913;BME280;6524;51.368;11.984;2023-07-29T23:31:07;156028.28;;;15.22;74.90
12913;BME280;6524;51.368;11.984;2023-07-29T23:36:08;156033.50;;;15.24;75.05
12913;BME280;6524;51.368;11.984;2023-07-29T23:41:09;156055.78;;;15.33;74.91
12913;BME280;6524;51.368;11.984;2023-07-29T23:46:09;156030.88;;;15.23;75.64
12913;BME280;6524;51.368;11.984;2023-07-29T23:51:10;155990.28;;;15.07;76.34
12913;BME280;6524;51.368;11.984;2023-07-29T23:56:10;155961.44;;;14.96;76.52
